MDT,Max TemperatureF,Mean TemperatureF,Min TemperatureF,Max Dew PointF,MeanDew PointF,Min DewpointF,Max Humidity, Mean Humidity, Min Humidity, Max Sea Level PressureIn, Mean Sea Level PressureIn, Min Sea Level PressureIn, Max VisibilityMiles, Mean VisibilityMiles, Min VisibilityMiles, Max Wind SpeedMPH, Mean Wind SpeedMPH, Max Gust SpeedMPH,PrecipitationIn, CloudCover, Events, WindDirDegrees
2012-9-1,87,74,61,48,43,38,56,39,21,30.05,29.85,29.79,10,10,10,31,17,45,0.00,0,,224
2012-9-2,85,71,56,45,33,19,57,33,9,29.98,29.92,29.87,10,10,10,23,14,35,0.00,0,,242
2012-9-3,86,70,53,36,25,11,43,25,6,30.10,29.93,29.86,10,10,10,23,10,33,0.00,0,,254
2012-9-4,87,68,49,29,21,16,38,23,8,30.05,29.91,29.81,10,10,10,28,14,38,0.00,0,,285
2012-9-5,87,63,38,32,23,8,70,38,6,30.12,29.96,29.82,10,10,10,20,7,52,0.00,0,,285
2012-9-6,79,62,45,49,27,15,89,52,14,30.21,29.94,29.85,10,10,7,22,12,44,0.12,2,Rain,337
2012-9-7,72,59,45,49,43,37,100,65,29,30.29,30.20,30.10,10,10,10,7,3,,T,2,Rain,39
2012-9-8,79,59,38,39,30,19,86,49,11,30.35,30.23,30.14,10,10,10,10,6,,0.00,0,,268
2012-9-9,88,63,37,31,23,18,70,39,8,30.13,29.97,29.78,10,10,10,22,10,31,0.00,0,,240
2012-9-10,90,74,57,54,38,20,64,40,15,30.01,29.79,29.68,10,10,5,27,17,39,0.02,2,Rain-Thunderstorm,233
2012-9-11,79,65,50,46,35,24,67,45,23,30.01,29.86,29.74,10,10,9,18,9,33,T,3,Rain-Thunderstorm,33
2012-9-12,72,55,37,43,31,23,77,51,24,30.31,30.17,30.03,10,10,10,12,7,,0.00,1,,9
2012-9-13,77,57,37,37,23,15,79,45,11,30.47,30.35,30.30,10,10,10,10,7,,0.00,0,,266
2012-9-14,84,58,31,26,21,17,54,32,9,30.38,30.23,30.09,10,10,10,14,6,22,0.00,0,,239
2012-9-15,86,65,44,21,15,5,37,21,5,30.22,30.02,29.92,10,10,10,17,10,24,0.00,1,,247
2012-9-16,81,62,43,33,22,8,45,29,12,30.09,29.99,29.91,10,9,4,22,11,37,T,2,,316
2012-9-17,70,55,40,42,33,22,77,47,17,30.14,30.09,30.02,10,10,10,12,6,20,0.01,3,Rain,354
2012-9-18,80,59,37,29,26,22,64,39,13,30.18,30.02,29.91,10,10,10,20,10,24,0.00,0,,267
2012-9-19,75,59,43,29,25,21,45,31,16,30.15,30.05,29.91,10,9,6,12,5,18,0.00,0,,28
2012-9-20,80,59,38,27,25,23,54,34,13,30.22,30.07,29.99,10,10,10,18,6,26,0.00,0,,292
2012-9-21,80,59,38,30,27,24,54,35,15,30.15,30.09,30.02,10,10,10,13,6,,0.00,0,,315
2012-9-22,79,58,36,30,27,25,64,40,15,30.28,30.11,30.03,10,10,10,14,4,20,0.00,0,,53
2012-9-23,84,59,34,32,27,20,69,40,10,30.09,30.01,29.93,10,10,10,16,5,31,T,1,Rain,55
2012-9-24,78,64,50,45,37,30,62,42,22,29.99,29.89,29.80,10,10,10,17,7,24,T,2,Rain,234
2012-9-25,74,61,48,44,41,34,80,53,25,30.07,29.90,29.82,10,10,10,15,9,,0.00,2,,238
2012-9-26,69,54,39,50,44,38,93,65,37,30.17,30.05,29.94,10,9,3,9,4,21,0.07,3,Rain-Thunderstorm,237
2012-9-27,72,56,39,47,43,39,96,65,33,30.14,30.09,30.02,10,10,6,13,5,24,0.05,1,Rain,236
2012-9-28,73,55,36,45,40,35,92,61,29,30.14,30.05,29.96,10,10,7,16,6,40,0.03,2,Rain-Thunderstorm,216
2012-9-29,75,61,46,40,36,30,71,47,22,30.06,29.99,29.93,10,10,10,16,9,24,0.00,0,,257
2012-9-30,75,59,43,38,34,30,76,48,20,30.20,30.10,30.02,10,10,10,16,8,29,0.01,3,,278